Time;durP1;ratioP1;P1;durP2;ratioP2;P2;SDS_P1;SDS_P2;PMS_P1;PMS_P2;Temp;Humidity;BMP_temperature;BMP_pressure;BME280_temperature;BME280_humidity;BME280_pressure;Samples;Min_cycle;Max_cycle;Signal;HPM_P1;HPM_P2
2020/05/23 00:01:07;;;;;;;2.6;2.4;;;;;;;18.87;47.17676;95671.94;;;;
2020/05/23 00:02:36;;;;;;;2.5;2.3;;;;;;;18.68;48.33301;95660.75;;;;
2020/05/23 00:03:55;;;;;;;2.5;2.3;;;;;;;18.68;48.33301;95660.75;;;;
2020/05/23 00:05:57;;;;;;;2.5;2.3;;;;;;;18.68;48.33301;95660.75;;;;
2020/05/23 00:07:48;;;;;;;2.5;2.3;;;;;;;18.68;48.33301;95660.75;;;;
2020/05/23 00:09:05;;;;;;;2.5;2.3;;;;;;;18.68;48.33301;95660.75;;;;
2020/05/23 00:10:28;;;;;;;2.5;2.3;;;;;;;18.68;48.33301;95660.75;;;;
2020/05/23 00:11:41;;;;;;;2.5;2.3;;;;;;;18.68;48.33301;95660.75;;;;
2020/05/23 00:13:31;;;;;;;2.5;2.3;;;;;;;18.54;49.24023;95671.59;;;;
2020/05/23 00:14:50;;;;;;;2.5;2.3;;;;;;;18.54;49.24023;95671.59;;;;
2020/05/23 00:16:48;;;;;;;2.5;2.3;;;;;;;18.54;49.24023;95671.59;;;;
2020/05/23 00:18:47;;;;;;;2.5;2.3;;;;;;;18.54;49.24023;95671.59;;;;
2020/05/23 00:26:28;;;;;;;2.7;2.5;;;;;;;18.35;50.10742;95684.01;;;;
2020/05/23 00:28:10;;;;;;;2.7;2.5;;;;;;;18.35;50.10742;95684.01;;;;
2020/05/23 00:35:02;;;;;;;3.3;2.35;;;;;;;18.28;50.69141;95671.33;;;;
2020/05/23 00:51:27;;;;;;;3.2;2.35;;;;;;;18.16;51.08398;95673.36;;;;
2020/05/23 01:05:01;;;;;;;2.8;2.5;;;;;;;18.13;51.60742;95687.59;;;;
2020/05/23 01:07:51;;;;;;;3;2.7;;;;;;;18.05;52.05664;95681.83;;;;
2020/05/23 01:10:23;;;;;;;3;2.7;;;;;;;18.05;52.05664;95681.83;;;;
2020/05/23 01:25:03;;;;;;;3.1;2.8;;;;;;;18.08;52.03906;95684.03;;;;
2020/05/23 01:45:53;;;;;;;3.7;2.95;;;;;;;17.97;53.25195;95683.75;;;;
2020/05/23 01:52:44;;;;;;;3.2;2.900001;;;;;;;17.86;53.99512;95680.73;;;;
2020/05/23 01:59:23;;;;;;;3.35;3.1;;;;;;;17.75;54.35352;95685.36;;;;
2020/05/23 02:00:58;;;;;;;3.35;3.1;;;;;;;17.75;54.35352;95685.36;;;;
2020/05/23 02:04:01;;;;;;;3.35;3.1;;;;;;;17.75;54.35352;95685.36;;;;
2020/05/23 02:05:35;;;;;;;3.35;3.1;;;;;;;17.75;54.35352;95685.36;;;;
2020/05/23 02:07:11;;;;;;;3.35;3.1;;;;;;;17.75;54.35352;95685.36;;;;
2020/05/23 02:09:31;;;;;;;3.35;3.1;;;;;;;17.75;54.35352;95685.36;;;;
2020/05/23 02:11:04;;;;;;;3.55;3.25;;;;;;;17.58;54.87988;95684.34;;;;
2020/05/23 02:12:14;;;;;;;3.55;3.25;;;;;;;17.58;54.87988;95684.34;;;;
2020/05/23 02:15:27;;;;;;;3.55;3.25;;;;;;;17.58;54.87988;95684.34;;;;
2020/05/23 02:16:45;;;;;;;3.55;3.25;;;;;;;17.58;54.87988;95684.34;;;;
2020/05/23 02:17:57;;;;;;;3.55;3.25;;;;;;;17.58;54.87988;95684.34;;;;
2020/05/23 02:19:11;;;;;;;3.55;3.25;;;;;;;17.58;54.87988;95684.34;;;;
2020/05/23 02:20:13;;;;;;;3.55;3.25;;;;;;;17.39;55.41406;95677.19;;;;
2020/05/23 02:21:19;;;;;;;3.55;3.25;;;;;;;17.39;55.41406;95677.19;;;;
2020/05/23 02:22:37;;;;;;;3.55;3.25;;;;;;;17.39;55.41406;95677.19;;;;
2020/05/23 02:23:47;;;;;;;3.55;3.25;;;;;;;17.39;55.41406;95677.19;;;;
2020/05/23 02:24:52;;;;;;;3.55;3.25;;;;;;;17.39;55.41406;95677.19;;;;
2020/05/23 02:25:53;;;;;;;3.55;3.25;;;;;;;17.39;55.41406;95677.19;;;;
2020/05/23 02:27:04;;;;;;;3.55;3.25;;;;;;;17.39;55.41406;95677.19;;;;
2020/05/23 02:28:04;;;;;;;3.55;3.25;;;;;;;17.39;55.41406;95677.19;;;;
2020/05/23 02:29:05;;;;;;;3.55;3.25;;;;;;;17.39;55.41406;95677.19;;;;
2020/05/23 02:30:06;;;;;;;3.55;3.25;;;;;;;17.39;55.41406;95677.19;;;;
2020/05/23 02:31:06;;;;;;;3.95;3.15;;;;;;;17.11;55.99023;95669.43;;;;
2020/05/23 02:34:09;;;;;;;3.95;3.15;;;;;;;17.11;55.99023;95669.43;;;;
2020/05/23 02:35:16;;;;;;;3.95;3.15;;;;;;;17.11;55.99023;95669.43;;;;
2020/05/23 02:36:29;;;;;;;3.95;3.15;;;;;;;17.11;55.99023;95669.43;;;;
2020/05/23 02:37:46;;;;;;;3.95;3.15;;;;;;;17.11;55.99023;95669.43;;;;
2020/05/23 02:38:48;;;;;;;3.95;3.15;;;;;;;17.11;55.99023;95669.43;;;;
2020/05/23 02:39:48;;;;;;;3.95;3.15;;;;;;;17.11;55.99023;95669.43;;;;
2020/05/23 02:41:25;;;;;;;3.8;3.5;;;;;;;16.93;56.62305;95659.81;;;;
2020/05/23 02:42:33;;;;;;;3.8;3.5;;;;;;;16.93;56.62305;95659.81;;;;
2020/05/23 02:43:38;;;;;;;3.8;3.5;;;;;;;16.93;56.62305;95659.81;;;;
2020/05/23 02:44:42;;;;;;;3.8;3.5;;;;;;;16.93;56.62305;95659.81;;;;
2020/05/23 02:45:42;;;;;;;3.8;3.5;;;;;;;16.93;56.62305;95659.81;;;;
2020/05/23 02:46:43;;;;;;;3.8;3.5;;;;;;;16.93;56.62305;95659.81;;;;
2020/05/23 02:47:43;;;;;;;3.8;3.5;;;;;;;16.93;56.62305;95659.81;;;;
2020/05/23 02:48:59;;;;;;;3.8;3.5;;;;;;;16.93;56.62305;95659.81;;;;
2020/05/23 02:50:00;;;;;;;3.8;3.5;;;;;;;16.93;56.62305;95659.81;;;;
2020/05/23 02:51:01;;;;;;;3.8;3.5;;;;;;;16.93;56.62305;95659.81;;;;
2020/05/23 02:52:06;;;;;;;3.95;3.55;;;;;;;16.74;57.26465;95654.55;;;;
2020/05/23 02:53:10;;;;;;;3.95;3.55;;;;;;;16.74;57.26465;95654.55;;;;
2020/05/23 02:54:15;;;;;;;3.95;3.55;;;;;;;16.74;57.26465;95654.55;;;;
2020/05/23 02:55:16;;;;;;;3.95;3.55;;;;;;;16.74;57.26465;95654.55;;;;
2020/05/23 02:56:18;;;;;;;3.95;3.55;;;;;;;16.74;57.26465;95654.55;;;;
2020/05/23 02:57:19;;;;;;;3.95;3.55;;;;;;;16.74;57.26465;95654.55;;;;
2020/05/23 02:58:19;;;;;;;3.95;3.55;;;;;;;16.74;57.26465;95654.55;;;;
2020/05/23 02:59:22;;;;;;;3.95;3.55;;;;;;;16.74;57.26465;95654.55;;;;
2020/05/23 03:00:22;;;;;;;3.95;3.55;;;;;;;16.74;57.26465;95654.55;;;;
2020/05/23 03:01:27;;;;;;;3.95;3.55;;;;;;;16.74;57.26465;95654.55;;;;
2020/05/23 03:02:35;;;;;;;4.199999;3.7;;;;;;;16.63;57.80664;95658.31;;;;
2020/05/23 03:03:44;;;;;;;4.199999;3.7;;;;;;;16.63;57.80664;95658.31;;;;
2020/05/23 03:04:54;;;;;;;4.199999;3.7;;;;;;;16.63;57.80664;95658.31;;;;
2020/05/23 03:05:56;;;;;;;4.199999;3.7;;;;;;;16.63;57.80664;95658.31;;;;
2020/05/23 03:06:56;;;;;;;4.199999;3.7;;;;;;;16.63;57.80664;95658.31;;;;
2020/05/23 03:07:57;;;;;;;4.199999;3.7;;;;;;;16.63;57.80664;95658.31;;;;
2020/05/23 03:08:58;;;;;;;4.199999;3.7;;;;;;;16.63;57.80664;95658.31;;;;
2020/05/23 03:10:00;;;;;;;4.199999;3.7;;;;;;;16.63;57.80664;95658.31;;;;
2020/05/23 03:11:06;;;;;;;4.199999;3.7;;;;;;;16.63;57.80664;95658.31;;;;
2020/05/23 03:12:09;;;;;;;4.199999;3.7;;;;;;;16.63;57.80664;95658.31;;;;
2020/05/23 03:13:09;;;;;;;3.8;3.5;;;;;;;16.44;58.46777;95656.09;;;;
2020/05/23 03:14:42;;;;;;;3.8;3.5;;;;;;;16.44;58.46777;95656.09;;;;
2020/05/23 03:15:49;;;;;;;3.8;3.5;;;;;;;16.44;58.46777;95656.09;;;;
2020/05/23 03:16:55;;;;;;;3.8;3.5;;;;;;;16.44;58.46777;95656.09;;;;
2020/05/23 03:18:01;;;;;;;3.8;3.5;;;;;;;16.44;58.46777;95656.09;;;;
2020/05/23 03:19:13;;;;;;;3.8;3.5;;;;;;;16.44;58.46777;95656.09;;;;
2020/05/23 03:20:16;;;;;;;3.8;3.5;;;;;;;16.44;58.46777;95656.09;;;;
2020/05/23 03:21:17;;;;;;;3.8;3.5;;;;;;;16.44;58.46777;95656.09;;;;
2020/05/23 03:22:18;;;;;;;3.8;3.5;;;;;;;16.44;58.46777;95656.09;;;;
2020/05/23 03:23:18;;;;;;;3.8;3.5;;;;;;;16.44;58.46777;95656.09;;;;
2020/05/23 03:24:19;;;;;;;4.699999;3.5;;;;;;;16.32;58.83203;95658.74;;;;
2020/05/23 03:25:19;;;;;;;4.699999;3.5;;;;;;;16.32;58.83203;95658.74;;;;
2020/05/23 03:26:20;;;;;;;4.699999;3.5;;;;;;;16.32;58.83203;95658.74;;;;
2020/05/23 03:27:20;;;;;;;4.699999;3.5;;;;;;;16.32;58.83203;95658.74;;;;
2020/05/23 03:28:21;;;;;;;4.699999;3.5;;;;;;;16.32;58.83203;95658.74;;;;
2020/05/23 03:29:23;;;;;;;4.699999;3.5;;;;;;;16.32;58.83203;95658.74;;;;
2020/05/23 03:30:34;;;;;;;4.699999;3.5;;;;;;;16.32;58.83203;95658.74;;;;
2020/05/23 03:31:46;;;;;;;4.699999;3.5;;;;;;;16.32;58.83203;95658.74;;;;
2020/05/23 03:37:02;;;;;;;4.1;3.8;;;;;;;16.06;59.45117;95651.9;;;;
2020/05/23 04:19:16;;;;;;;4.45;4.05;;;;;;;16.1;61.13184;95663.51;;;;
